Tisch Mills, Wisconsin
Current Conditions -  °F | °C
As of 6:56 AM on Thursday 30 Oct 2014 (Local Time) from KMTW Reporting Station
Few Clouds Few Clouds  
Wind Chill: 34°   Ceiling: Unl
Heat Index: 38°   Visibility: 10mi
Dew Point: 35°   Wind: 5mph
Humidity: 89%   Direction: 260°W
Pressure: 30.1"   Gusts: NA
Location:  44.33°N, 87.62°W
Report Text: KMTW 301156Z AUTO 26004KT 10SM FEW036 03/02 A3010 RMK AO2 SLP217 T00330017 10061 20033 50003
Loading
Personal Weather Stations






























Interactive Weather Map
Tropical Storm Tracking
New forecast layout! Learn more

10-Day Weather Forecast

Advertisements
Track Severe Weather on mobile